Time;durP1;ratioP1;P1;durP2;ratioP2;P2;SDS_P1;SDS_P2;PMS_P1;PMS_P2;Temp;Humidity;BMP_temperature;BMP_pressure;BME280_temperature;BME280_humidity;BME280_pressure;Samples;Min_cycle;Max_cycle;Signal;HPM_P1;HPM_P2
2022/04/15 00:01:53;;;;;;;17.17;12.47;;;11.60;99.90;;;;;;5041726;28;20944;-71
2022/04/15 00:04:20;;;;;;;21.77;12.70;;;11.60;99.90;;;;;;5034495;28;20562;-71
2022/04/15 00:06:46;;;;;;;20.43;13.70;;;11.50;99.90;;;;;;5038791;28;20458;-71
2022/04/15 00:09:13;;;;;;;16.93;13.27;;;11.50;99.90;;;;;;5034070;28;20469;-71
2022/04/15 00:11:39;;;;;;;19.53;13.83;;;11.50;99.90;;;;;;5032649;28;20949;-70
2022/04/15 00:14:06;;;;;;;17.17;13.40;;;11.40;99.90;;;;;;5043845;28;20456;-71
2022/04/15 00:16:34;;;;;;;22.67;14.10;;;11.40;99.90;;;;;;5040725;28;20523;-70
2022/04/15 00:19:01;;;;;;;16.30;13.50;;;11.40;99.90;;;;;;5038123;28;20968;-70
2022/04/15 00:21:28;;;;;;;18.33;12.43;;;11.30;99.90;;;;;;5039192;28;20448;-71
2022/04/15 00:23:56;;;;;;;17.50;13.83;;;11.30;99.90;;;;;;5038612;28;20495;-70
2022/04/15 00:26:23;;;;;;;17.53;13.37;;;11.20;99.90;;;;;;5042620;28;20472;-71
2022/04/15 00:28:52;;;;;;;17.97;13.37;;;11.20;99.90;;;;;;5037515;28;21067;-71
2022/04/15 00:31:19;;;;;;;18.73;14.13;;;11.20;99.90;;;;;;5037133;28;20572;-70
2022/04/15 00:33:46;;;;;;;21.20;13.97;;;11.20;99.90;;;;;;5034224;28;20466;-71
2022/04/15 00:36:13;;;;;;;16.93;13.40;;;11.20;99.90;;;;;;5039917;28;20460;-70
2022/04/15 00:38:40;;;;;;;17.60;12.70;;;11.10;99.90;;;;;;5037811;28;21074;-70
2022/04/15 00:41:06;;;;;;;21.13;13.87;;;11.10;99.90;;;;;;5036206;28;20867;-70
2022/04/15 00:43:33;;;;;;;14.40;12.33;;;11.10;99.90;;;;;;5045662;28;20448;-71
2022/04/15 00:46:06;;;;;;;19.77;13.70;;;11.00;99.90;;;;;;5036204;28;20932;-71
2022/04/15 00:48:33;;;;;;;14.07;11.93;;;10.90;99.90;;;;;;5045945;28;20814;-71
2022/04/15 00:51:01;;;;;;;20.53;13.03;;;10.90;99.90;;;;;;5036204;28;20492;-71
2022/04/15 00:53:30;;;;;;;16.63;12.20;;;10.90;99.90;;;;;;5034730;28;20457;-71
2022/04/15 00:56:00;;;;;;;20.50;14.13;;;10.80;99.90;;;;;;5042563;28;20850;-71
2022/04/15 00:58:28;;;;;;;19.87;14.20;;;10.80;99.90;;;;;;5036798;28;20449;-70
2022/04/15 01:00:56;;;;;;;20.43;13.23;;;10.80;99.90;;;;;;5040712;28;20456;-70
2022/04/15 01:03:23;;;;;;;17.40;13.23;;;10.80;99.90;;;;;;5039881;28;20534;-70
2022/04/15 01:05:53;;;;;;;17.93;13.03;;;10.70;99.90;;;;;;5040684;28;20453;-69
2022/04/15 01:08:24;;;;;;;15.67;12.87;;;10.70;99.90;;;;;;5033001;28;21761;-70
2022/04/15 01:10:53;;;;;;;17.93;14.30;;;10.60;99.90;;;;;;5035494;28;21278;-71
2022/04/15 01:13:22;;;;;;;17.03;14.03;;;10.60;99.90;;;;;;5041736;28;20460;-71
2022/04/15 01:15:49;;;;;;;18.50;14.87;;;10.60;99.90;;;;;;5041764;28;20507;-71
2022/04/15 01:18:16;;;;;;;23.20;15.30;;;10.60;99.90;;;;;;5039290;28;20503;-71
2022/04/15 01:20:43;;;;;;;20.60;15.60;;;10.50;99.90;;;;;;5043156;28;20481;-71
2022/04/15 01:23:12;;;;;;;20.83;14.63;;;10.50;99.90;;;;;;5037707;28;20445;-71
2022/04/15 01:25:39;;;;;;;18.60;14.83;;;10.40;99.90;;;;;;5042409;28;20453;-70
2022/04/15 01:28:06;;;;;;;22.17;15.53;;;10.40;99.90;;;;;;5040766;28;20495;-70
2022/04/15 01:30:34;;;;;;;19.40;13.70;;;10.40;99.90;;;;;;5036067;28;20882;-71
2022/04/15 01:33:02;;;;;;;23.40;16.20;;;10.40;99.90;;;;;;5041709;28;20454;-71
2022/04/15 01:35:30;;;;;;;23.10;15.17;;;10.30;99.90;;;;;;5047870;28;20456;-70
2022/04/15 01:37:59;;;;;;;19.97;14.27;;;10.30;99.90;;;;;;5040794;28;20507;-71
2022/04/15 01:40:27;;;;;;;18.43;14.70;;;10.30;99.90;;;;;;5036598;28;20484;-70
2022/04/15 01:42:54;;;;;;;24.47;14.93;;;10.20;99.90;;;;;;5043088;28;20452;-70
2022/04/15 01:45:21;;;;;;;17.80;13.73;;;10.20;99.90;;;;;;5036668;28;20899;-70
2022/04/15 01:47:49;;;;;;;24.50;15.47;;;10.10;99.90;;;;;;5042016;28;20502;-71
2022/04/15 01:50:16;;;;;;;22.27;15.90;;;10.10;99.90;;;;;;5037914;28;20477;-70
2022/04/15 01:52:43;;;;;;;26.00;14.70;;;10.10;99.90;;;;;;5045874;28;20449;-70
2022/04/15 01:55:10;;;;;;;20.10;14.63;;;10.10;99.90;;;;;;5041429;28;20926;-70
2022/04/15 01:57:38;;;;;;;21.30;14.40;;;10.10;99.90;;;;;;5042865;28;20494;-70
2022/04/15 02:00:05;;;;;;;21.10;14.63;;;10.10;99.90;;;;;;5034510;28;20493;-70
2022/04/15 02:02:32;;;;;;;21.37;15.23;;;10.10;99.90;;;;;;5048805;28;21027;-70
2022/04/15 02:05:00;;;;;;;23.43;15.27;;;10.10;99.90;;;;;;5043784;28;20448;-71
2022/04/15 02:07:26;;;;;;;23.00;15.80;;;10.10;99.90;;;;;;5038159;28;20483;-70
2022/04/15 02:09:53;;;;;;;26.00;15.57;;;10.10;99.90;;;;;;5037738;28;20469;-70
2022/04/15 02:12:20;;;;;;;19.83;15.20;;;10.10;99.90;;;;;;5036426;28;20550;-70
2022/04/15 02:14:48;;;;;;;19.60;15.53;;;10.00;99.90;;;;;;5042622;28;20450;-70
2022/04/15 02:17:14;;;;;;;20.97;15.63;;;10.00;99.90;;;;;;5040466;28;20953;-71
2022/04/15 02:19:41;;;;;;;22.53;16.47;;;9.90;99.90;;;;;;5043187;28;20518;-71
2022/04/15 02:22:08;;;;;;;21.33;16.07;;;9.90;99.90;;;;;;5037551;28;20806;-70
2022/04/15 02:24:34;;;;;;;22.03;15.30;;;9.80;99.90;;;;;;5035352;28;20510;-70
2022/04/15 02:27:01;;;;;;;24.63;17.57;;;9.80;99.90;;;;;;5038160;28;20454;-70
2022/04/15 02:29:28;;;;;;;24.07;16.77;;;9.70;99.90;;;;;;5048121;28;20461;-70
2022/04/15 02:31:56;;;;;;;26.63;17.40;;;9.80;99.90;;;;;;5042786;28;20506;-70
2022/04/15 02:34:22;;;;;;;27.27;16.53;;;9.90;99.90;;;;;;5040853;28;20503;-70
2022/04/15 02:36:49;;;;;;;23.57;17.20;;;9.90;99.90;;;;;;5036428;28;20503;-70
2022/04/15 02:39:15;;;;;;;25.23;16.87;;;9.90;99.90;;;;;;5041250;28;20901;-70
2022/04/15 02:41:42;;;;;;;26.20;16.90;;;9.90;99.90;;;;;;5042054;28;20452;-70
2022/04/15 02:44:09;;;;;;;21.33;15.83;;;9.90;99.90;;;;;;5047052;28;20514;-70
2022/04/15 02:46:36;;;;;;;18.50;15.30;;;9.90;99.90;;;;;;5044254;28;20456;-70
2022/04/15 02:49:04;;;;;;;22.53;15.73;;;9.80;99.90;;;;;;5037769;28;20528;-71
2022/04/15 02:51:32;;;;;;;25.60;15.37;;;9.70;99.90;;;;;;5039206;28;20448;-71
2022/04/15 02:53:58;;;;;;;18.80;14.00;;;9.60;99.90;;;;;;5044549;28;20449;-71
2022/04/15 02:56:25;;;;;;;23.03;15.43;;;9.60;99.90;;;;;;5038611;28;20453;-70
2022/04/15 02:58:52;;;;;;;18.90;14.43;;;9.50;99.90;;;;;;5042586;28;20999;-71
2022/04/15 03:01:18;;;;;;;21.43;15.27;;;9.40;99.90;;;;;;5046813;28;21003;-70
2022/04/15 03:03:45;;;;;;;23.67;15.80;;;9.30;99.90;;;;;;5042349;28;20514;-71
2022/04/15 03:06:13;;;;;;;22.70;16.00;;;9.30;99.90;;;;;;5042246;28;20460;-70
2022/04/15 03:08:40;;;;;;;21.80;16.10;;;9.20;99.90;;;;;;5045878;28;20473;-70
2022/04/15 03:11:07;;;;;;;22.23;16.23;;;9.20;99.90;;;;;;5039536;28;20453;-71
2022/04/15 03:13:35;;;;;;;24.93;16.50;;;9.30;99.90;;;;;;5041260;28;20456;-70
2022/04/15 03:16:02;;;;;;;27.30;16.13;;;9.30;99.90;;;;;;5039076;28;20453;-70
2022/04/15 03:18:28;;;;;;;20.27;15.93;;;9.40;99.90;;;;;;5036193;28;20463;-70
2022/04/15 03:20:55;;;;;;;22.13;15.93;;;9.40;99.90;;;;;;5038747;28;20477;-70
2022/04/15 03:23:23;;;;;;;23.23;15.77;;;9.40;99.90;;;;;;5045111;28;20457;-70
2022/04/15 03:25:49;;;;;;;24.67;16.50;;;9.40;99.90;;;;;;5041084;28;20495;-71
2022/04/15 03:28:16;;;;;;;20.73;15.50;;;9.40;99.90;;;;;;5036019;28;20457;-70
2022/04/15 03:30:43;;;;;;;23.07;15.30;;;9.50;99.90;;;;;;5042535;28;20441;-70
2022/04/15 03:33:10;;;;;;;22.70;16.27;;;9.40;99.90;;;;;;5041729;28;20946;-71
2022/04/15 03:35:36;;;;;;;29.43;16.93;;;9.40;99.90;;;;;;5040500;28;20502;-70
2022/04/15 03:38:03;;;;;;;23.63;16.30;;;9.40;99.90;;;;;;5038914;28;20452;-70
2022/04/15 03:40:31;;;;;;;20.57;16.13;;;9.40;99.90;;;;;;5042336;28;20488;-70
2022/04/15 03:42:58;;;;;;;20.43;15.57;;;9.40;99.90;;;;;;5036965;28;20512;-70
2022/04/15 03:45:25;;;;;;;25.20;15.40;;;9.40;99.90;;;;;;5039306;28;20465;-70
2022/04/15 03:47:54;;;;;;;22.10;16.20;;;9.30;99.90;;;;;;5042861;28;20440;-70
2022/04/15 03:50:21;;;;;;;23.70;16.10;;;9.40;99.90;;;;;;5045875;28;20468;-70
2022/04/15 03:52:50;;;;;;;23.00;16.40;;;9.40;99.90;;;;;;5033784;28;20453;-70
2022/04/15 03:55:18;;;;;;;20.87;16.07;;;9.40;99.90;;;;;;5038522;28;20510;-71
2022/04/15 03:57:46;;;;;;;22.10;15.87;;;9.40;99.90;;;;;;5039733;28;20531;-70
2022/04/15 04:00:15;;;;;;;23.90;16.27;;;9.40;99.90;;;;;;5034035;28;20911;-70
2022/04/15 04:02:43;;;;;;;22.07;14.90;;;9.50;99.90;;;;;;5034429;28;20460;-70
2022/04/15 04:05:10;;;;;;;21.40;15.13;;;9.40;99.90;;;;;;5040957;28;20449;-70
2022/04/15 04:07:38;;;;;;;22.40;13.73;;;9.40;99.90;;;;;;5040515;28;20453;-70
2022/04/15 04:10:05;;;;;;;21.13;15.13;;;9.50;99.90;;;;;;5043884;28;20470;-71
2022/04/15 04:12:34;;;;;;;19.77;14.30;;;9.50;99.90;;;;;;5039398;28;20452;-70
2022/04/15 04:15:02;;;;;;;18.20;14.20;;;9.50;99.90;;;;;;5033588;28;21222;-70
2022/04/15 04:17:29;;;;;;;28.33;15.23;;;9.60;99.90;;;;;;5044908;28;20476;-70
2022/04/15 04:19:56;;;;;;;22.97;14.80;;;9.60;99.90;;;;;;5042838;28;20487;-70
2022/04/15 04:22:27;;;;;;;22.57;14.80;;;9.50;99.90;;;;;;5038263;28;20507;-70
2022/04/15 04:24:53;;;;;;;20.93;13.37;;;9.60;99.90;;;;;;5036844;28;20945;-71
2022/04/15 04:27:20;;;;;;;22.70;14.97;;;9.50;99.90;;;;;;5039009;28;20453;-70
2022/04/15 04:29:47;;;;;;;22.63;16.13;;;9.50;99.90;;;;;;5032874;28;21245;-70
2022/04/15 04:32:16;;;;;;;20.03;15.47;;;9.50;99.90;;;;;;5042130;28;20458;-70
2022/04/15 04:34:43;;;;;;;26.60;16.13;;;9.40;99.90;;;;;;5038161;28;20453;-70
2022/04/15 04:37:10;;;;;;;26.70;16.60;;;9.40;99.90;;;;;;5040864;28;20497;-71
2022/04/15 04:39:37;;;;;;;23.17;17.40;;;9.20;99.90;;;;;;5045976;28;20526;-70
2022/04/15 04:42:04;;;;;;;24.30;17.20;;;9.10;99.90;;;;;;5041911;28;20449;-70
2022/04/15 04:44:31;;;;;;;22.40;16.20;;;9.00;99.90;;;;;;5038722;28;20511;-70
2022/04/15 04:46:59;;;;;;;20.73;16.67;;;9.00;99.90;;;;;;5042237;28;20456;-71
2022/04/15 04:49:27;;;;;;;24.57;17.00;;;8.90;99.90;;;;;;5034420;28;20527;-70
2022/04/15 04:51:53;;;;;;;23.43;16.83;;;8.80;99.90;;;;;;5037715;28;20942;-71
2022/04/15 04:54:20;;;;;;;20.37;16.13;;;8.80;99.90;;;;;;5033701;28;20467;-71
2022/04/15 04:56:47;;;;;;;21.33;15.30;;;8.80;99.90;;;;;;5043258;28;20465;-71
2022/04/15 04:59:14;;;;;;;20.77;15.43;;;8.80;99.90;;;;;;5039314;28;20993;-70
2022/04/15 05:01:40;;;;;;;23.20;16.20;;;8.80;99.90;;;;;;5046443;28;20903;-70
2022/04/15 05:04:07;;;;;;;24.97;15.77;;;8.80;99.90;;;;;;5036157;28;20460;-70
2022/04/15 05:06:35;;;;;;;21.33;14.90;;;8.80;99.90;;;;;;5043743;28;20449;-70
2022/04/15 05:09:02;;;;;;;23.60;14.70;;;8.90;99.90;;;;;;5049728;28;20898;-71
2022/04/15 05:11:28;;;;;;;23.13;14.13;;;9.00;99.90;;;;;;5043430;28;20498;-70
2022/04/15 05:13:55;;;;;;;22.67;15.93;;;9.10;99.90;;;;;;5046296;28;20453;-71
2022/04/15 05:16:22;;;;;;;24.27;15.23;;;9.20;99.90;;;;;;5039985;28;21106;-71
2022/04/15 05:18:48;;;;;;;22.13;14.53;;;9.20;99.90;;;;;;5050106;28;20468;-70
2022/04/15 05:21:15;;;;;;;22.40;14.23;;;9.30;99.90;;;;;;5049672;28;20488;-70
2022/04/15 05:23:45;;;;;;;19.90;14.40;;;9.30;99.90;;;;;;5040853;28;20479;-71
2022/04/15 05:26:12;;;;;;;17.43;13.90;;;9.40;99.90;;;;;;5042399;28;20461;-71
2022/04/15 05:28:41;;;;;;;20.77;14.30;;;9.60;99.90;;;;;;5042208;28;20469;-71
2022/04/15 05:31:08;;;;;;;22.30;14.03;;;9.90;99.90;;;;;;5039301;28;20456;-70
2022/04/15 05:33:34;;;;;;;17.77;12.63;;;10.10;99.90;;;;;;5043435;28;20504;-71
2022/04/15 05:36:01;;;;;;;19.70;12.60;;;10.50;99.90;;;;;;5050358;28;20503;-71
2022/04/15 05:38:28;;;;;;;17.90;12.67;;;10.80;99.90;;;;;;5040588;28;20461;-71
2022/04/15 05:40:56;;;;;;;15.30;11.77;;;11.20;99.90;;;;;;5041568;28;20473;-70
2022/04/15 05:43:23;;;;;;;16.10;11.97;;;11.60;99.90;;;;;;5047128;28;21030;-71
2022/04/15 05:45:49;;;;;;;18.10;12.00;;;12.00;99.90;;;;;;5041430;28;20453;-71
2022/04/15 05:48:16;;;;;;;15.83;10.83;;;12.50;99.90;;;;;;5040507;28;20454;-71
2022/04/15 05:50:43;;;;;;;20.20;12.20;;;12.90;99.90;;;;;;5049948;28;20453;-71
2022/04/15 05:53:12;;;;;;;17.03;13.20;;;13.20;99.90;;;;;;5044466;28;20449;-71
2022/04/15 05:55:38;;;;;;;18.93;14.47;;;13.50;99.90;;;;;;5043270;28;20450;-71
2022/04/15 05:58:07;;;;;;;18.10;14.57;;;13.60;99.90;;;;;;5045346;28;20498;-71
2022/04/15 06:00:34;;;;;;;23.00;15.47;;;13.50;99.90;;;;;;5039253;28;20486;-70
2022/04/15 06:03:01;;;;;;;20.77;14.97;;;13.50;99.90;;;;;;5045002;28;20522;-71
2022/04/15 06:05:27;;;;;;;17.90;14.33;;;13.60;99.90;;;;;;5042327;28;20512;-70
2022/04/15 06:07:54;;;;;;;19.37;14.20;;;13.60;99.90;;;;;;5045656;28;20449;-70
2022/04/15 06:10:21;;;;;;;18.57;13.87;;;13.80;99.90;;;;;;5041381;28;20877;-70
2022/04/15 06:13:02;;;;;;;17.23;14.07;;;14.10;99.90;;;;;;5041092;28;20445;-70
2022/04/15 06:15:32;;;;;;;15.60;12.60;;;14.40;99.90;;;;;;5035814;28;20456;-70
2022/04/15 06:17:59;;;;;;;16.57;12.50;;;14.70;99.90;;;;;;5040881;28;20444;-70
2022/04/15 06:20:26;;;;;;;20.47;13.00;;;14.80;99.90;;;;;;5047535;28;20484;-70
2022/04/15 06:22:53;;;;;;;18.83;14.23;;;15.00;99.90;;;;;;5036765;28;20453;-70
2022/04/15 06:25:19;;;;;;;23.33;13.97;;;15.20;99.90;;;;;;5036745;28;20453;-70
2022/04/15 06:27:46;;;;;;;18.33;12.17;;;15.40;99.90;;;;;;5039251;28;20449;-70
2022/04/15 06:30:13;;;;;;;14.80;9.60;;;15.60;99.90;;;;;;5038578;28;20473;-70
2022/04/15 06:32:41;;;;;;;10.07;7.73;;;15.90;99.90;;;;;;5040490;28;20461;-70
2022/04/15 06:35:09;;;;;;;12.20;8.43;;;16.30;99.90;;;;;;5034816;28;20958;-70
2022/04/15 06:37:35;;;;;;;11.20;8.17;;;16.50;99.90;;;;;;5044810;28;21010;-70
2022/04/15 06:40:02;;;;;;;10.57;7.70;;;16.80;99.90;;;;;;5034692;28;20497;-70
2022/04/15 06:42:30;;;;;;;10.90;7.80;;;17.10;99.90;;;;;;5039990;28;20451;-70
2022/04/15 06:44:58;;;;;;;12.53;8.40;;;17.30;99.90;;;;;;5039950;28;20985;-70
2022/04/15 06:47:25;;;;;;;9.10;7.23;;;17.40;99.90;;;;;;5041117;28;20445;-70
2022/04/15 06:49:53;;;;;;;11.37;7.77;;;17.40;99.90;;;;;;5034464;28;21043;-70
2022/04/15 06:52:19;;;;;;;11.13;7.93;;;17.50;99.90;;;;;;5039594;28;20506;-70
2022/04/15 06:54:46;;;;;;;9.40;7.83;;;17.60;99.90;;;;;;5042200;28;20423;-70
2022/04/15 06:57:13;;;;;;;8.27;6.63;;;17.70;99.90;;;;;;5038642;28;20530;-69
2022/04/15 06:59:40;;;;;;;9.67;6.83;;;17.80;99.90;;;;;;5039844;28;20459;-70
2022/04/15 07:02:07;;;;;;;8.97;6.67;;;17.90;99.90;;;;;;5039557;28;20481;-70
2022/04/15 07:04:35;;;;;;;11.17;6.77;;;17.90;99.90;;;;;;5041689;28;20432;-69
2022/04/15 07:07:03;;;;;;;12.47;6.50;;;17.90;99.90;;;;;;5047526;28;20507;-71
2022/04/15 07:09:30;;;;;;;9.30;5.80;;;17.80;99.90;;;;;;5040724;28;20901;-70
2022/04/15 07:11:57;;;;;;;9.67;5.60;;;17.80;99.90;;;;;;5038366;28;20934;-70
2022/04/15 07:14:24;;;;;;;11.20;5.80;;;17.80;99.90;;;;;;5043487;28;20788;-70
2022/04/15 07:16:51;;;;;;;8.37;5.20;;;17.90;99.90;;;;;;5041217;28;20453;-70
2022/04/15 07:19:18;;;;;;;9.20;5.90;;;18.00;99.90;;;;;;5044291;28;20451;-70
2022/04/15 07:21:45;;;;;;;5.97;5.00;;;17.80;99.90;;;;;;5033864;28;20453;-69
2022/04/15 07:24:13;;;;;;;7.10;5.10;;;17.50;99.90;;;;;;5037958;28;20481;-69
2022/04/15 07:26:39;;;;;;;9.03;5.70;;;17.60;99.90;;;;;;5043737;28;20481;-69
2022/04/15 07:29:06;;;;;;;8.73;5.63;;;17.70;99.90;;;;;;5038350;28;20538;-70
2022/04/15 07:31:34;;;;;;;12.90;5.77;;;17.90;99.90;;;;;;5039421;28;20830;-70
2022/04/15 07:34:01;;;;;;;7.37;5.40;;;18.00;99.90;;;;;;5043764;28;20979;-70
2022/04/15 07:36:53;;;;;;;6.47;4.70;;;18.20;99.90;;;;;;5043131;28;20529;-70
2022/04/15 07:39:22;;;;;;;5.97;4.33;;;18.20;99.90;;;;;;5033890;28;20480;-70
2022/04/15 07:41:50;;;;;;;5.60;4.50;;;18.10;99.90;;;;;;5034279;28;20990;-69
2022/04/15 07:44:17;;;;;;;8.73;5.77;;;18.10;99.90;;;;;;5036180;28;20445;-69
2022/04/15 07:46:46;;;;;;;5.43;4.93;;;18.30;99.90;;;;;;5038297;28;20420;-70
2022/04/15 07:49:13;;;;;;;6.73;4.37;;;18.40;99.90;;;;;;5036411;28;20521;-70
2022/04/15 07:51:40;;;;;;;7.10;4.53;;;18.40;99.90;;;;;;5035575;28;20474;-69
2022/04/15 07:54:08;;;;;;;6.67;4.80;;;18.70;99.90;;;;;;5040252;28;20423;-69
2022/04/15 07:56:36;;;;;;;4.90;4.07;;;18.70;99.90;;;;;;5038716;28;20447;-70
2022/04/15 07:59:04;;;;;;;7.60;4.53;;;18.60;99.90;;;;;;5037137;28;20444;-70
2022/04/15 08:01:31;;;;;;;11.67;4.50;;;18.70;99.90;;;;;;5039773;28;20582;-70
2022/04/15 08:03:58;;;;;;;7.70;4.00;;;18.90;99.90;;;;;;5031372;28;20550;-69
2022/04/15 08:06:28;;;;;;;3.50;3.20;;;19.10;99.90;;;;;;5038186;28;20455;-70
2022/04/15 08:08:55;;;;;;;4.30;3.10;;;19.10;99.90;;;;;;5036754;28;20511;-70
2022/04/15 08:11:22;;;;;;;6.23;3.20;;;19.10;99.90;;;;;;5035619;28;20536;-70
2022/04/15 08:13:51;;;;;;;4.40;3.70;;;19.10;99.90;;;;;;5037544;28;20424;-69
2022/04/15 08:16:17;;;;;;;5.60;3.57;;;19.00;99.90;;;;;;5038292;28;20948;-70
2022/04/15 08:18:44;;;;;;;5.10;4.23;;;18.80;99.90;;;;;;5036119;28;20523;-70
2022/04/15 08:21:11;;;;;;;5.20;4.70;;;18.70;99.90;;;;;;5034701;28;20520;-69
2022/04/15 08:23:38;;;;;;;4.20;3.80;;;18.90;99.90;;;;;;5041662;28;20431;-69
2022/04/15 08:26:04;;;;;;;5.30;3.73;;;18.90;99.90;;;;;;5038374;28;20427;-70
2022/04/15 08:28:31;;;;;;;5.40;3.83;;;19.10;99.90;;;;;;5038411;28;20445;-70
2022/04/15 08:30:59;;;;;;;9.73;5.03;;;19.30;99.90;;;;;;5037872;28;20927;-71
2022/04/15 08:33:26;;;;;;;14.90;5.77;;;19.30;99.90;;;;;;5037462;28;20504;-72
2022/04/15 08:35:53;;;;;;;7.00;4.90;;;19.20;99.90;;;;;;5045624;28;20469;-72
2022/04/15 08:38:19;;;;;;;6.73;4.40;;;19.10;99.90;;;;;;5048975;28;20480;-72
2022/04/15 08:40:50;;;;;;;6.20;4.17;;;18.90;99.90;;;;;;5040001;28;20458;-72
2022/04/15 08:43:16;;;;;;;6.07;4.20;;;18.70;99.90;;;;;;5043803;28;20510;-70
2022/04/15 08:45:47;;;;;;;6.33;4.00;;;18.60;99.90;;;;;;5039547;28;21103;-72
2022/04/15 08:48:15;;;;;;;7.97;4.67;;;18.10;99.90;;;;;;5047592;28;20989;-73
2022/04/15 08:50:42;;;;;;;7.07;4.70;;;17.80;99.90;;;;;;5039617;28;21011;-73
2022/04/15 08:53:10;;;;;;;8.57;4.27;;;17.40;99.90;;;;;;5037425;28;20441;-72
2022/04/15 08:55:36;;;;;;;12.23;4.30;;;17.30;99.90;;;;;;5034117;28;20423;-72
2022/04/15 08:58:03;;;;;;;4.73;3.67;;;17.30;99.90;;;;;;5033852;28;20457;-72
2022/04/15 09:00:30;;;;;;;4.70;4.00;;;17.20;99.90;;;;;;5041596;28;20451;-72
2022/04/15 09:02:57;;;;;;;6.83;4.40;;;17.10;99.90;;;;;;5052714;28;20459;-74
2022/04/15 09:05:27;;;;;;;8.80;4.17;;;16.90;99.90;;;;;;5046506;28;20674;-69
2022/04/15 09:08:04;;;;;;;4.80;4.10;;;17.10;99.90;;;;;;5034055;28;20516;-69
2022/04/15 09:10:33;;;;;;;6.47;3.37;;;17.50;99.90;;;;;;5033705;28;20456;-73
2022/04/15 09:13:00;;;;;;;6.43;3.07;;;17.90;99.90;;;;;;5033282;28;20804;-71
2022/04/15 09:15:26;;;;;;;3.70;3.10;;;18.10;99.90;;;;;;5040912;28;20941;-72
2022/04/15 09:17:54;;;;;;;7.70;3.50;;;18.20;99.90;;;;;;5033585;28;20424;-72
2022/04/15 09:20:22;;;;;;;3.30;3.00;;;18.40;99.90;;;;;;5033101;28;20467;-74
2022/04/15 09:22:54;;;;;;;3.27;2.80;;;18.70;99.90;;;;;;5041616;28;20482;-73
2022/04/15 09:25:25;;;;;;;2.70;2.50;;;19.20;99.90;;;;;;5046874;28;20515;-74
2022/04/15 09:27:55;;;;;;;2.77;1.67;;;19.40;99.90;;;;;;5051510;28;20514;-75
2022/04/15 09:30:32;;;;;;;2.50;1.83;;;19.70;99.90;;;;;;5038209;28;20454;-74
2022/04/15 09:33:01;;;;;;;3.20;1.80;;;19.80;99.90;;;;;;5032960;28;20515;-74
2022/04/15 09:35:27;;;;;;;4.80;2.20;;;20.00;99.90;;;;;;5032859;28;20452;-73
2022/04/15 09:38:03;;;;;;;1.90;1.80;;;19.90;99.90;;;;;;5040742;28;20452;-73
2022/04/15 09:40:31;;;;;;;2.03;1.83;;;20.00;99.90;;;;;;5032705;28;20989;-74
2022/04/15 09:42:59;;;;;;;5.23;2.70;;;20.00;99.90;;;;;;5033078;28;20485;-73
2022/04/15 09:45:29;;;;;;;2.70;2.50;;;20.20;99.90;;;;;;5036043;28;20460;-72
2022/04/15 09:47:58;;;;;;;3.20;2.90;;;20.40;99.90;;;;;;5042170;28;20901;-73
2022/04/15 09:50:26;;;;;;;3.63;2.60;;;20.60;99.90;;;;;;5041556;28;20476;-73
2022/04/15 09:52:55;;;;;;;3.10;2.80;;;20.80;99.90;;;;;;5040499;28;20452;-73
2022/04/15 09:55:24;;;;;;;3.93;2.93;;;20.90;99.90;;;;;;5051487;28;20452;-74
2022/04/15 09:57:51;;;;;;;5.00;3.10;;;20.50;99.90;;;;;;5040606;28;20457;-73
2022/04/15 10:00:19;;;;;;;3.73;2.70;;;20.50;99.90;;;;;;5034157;28;21009;-73
2022/04/15 10:02:47;;;;;;;5.40;3.10;;;20.60;99.90;;;;;;5034534;28;20497;-72
2022/04/15 10:05:15;;;;;;;5.50;3.00;;;20.50;99.90;;;;;;5046574;28;20456;-73
2022/04/15 10:07:42;;;;;;;6.07;3.13;;;20.50;99.90;;;;;;5036581;28;20465;-73
2022/04/15 10:10:11;;;;;;;6.60;3.23;;;20.50;99.90;;;;;;5037048;28;20530;-73
2022/04/15 10:12:39;;;;;;;5.83;3.00;;;20.90;99.90;;;;;;5052308;28;20499;-74
2022/04/15 10:15:09;;;;;;;3.40;3.07;;;21.20;99.90;;;;;;5048649;28;20457;-74
2022/04/15 10:17:37;;;;;;;3.10;2.90;;;21.60;99.90;;;;;;5032761;28;20473;-73
2022/04/15 10:20:04;;;;;;;2.90;2.70;;;21.90;99.90;;;;;;5032599;28;20473;-73
2022/04/15 10:22:32;;;;;;;4.77;3.13;;;22.20;99.90;;;;;;5036131;28;20484;-72
2022/04/15 10:24:59;;;;;;;4.30;2.83;;;22.40;99.90;;;;;;5042023;28;20453;-73
2022/04/15 10:27:30;;;;;;;3.77;3.17;;;22.40;99.90;;;;;;5047099;28;20452;-73
2022/04/15 10:30:01;;;;;;;5.40;3.77;;;22.40;99.90;;;;;;5031839;28;20484;-73
2022/04/15 10:32:28;;;;;;;6.40;3.50;;;22.50;99.90;;;;;;5033826;28;20457;-73
2022/04/15 10:34:54;;;;;;;4.60;3.50;;;22.40;99.90;;;;;;5050452;28;20460;-73
2022/04/15 10:37:54;;;;;;;4.87;3.60;;;22.20;99.90;;;;;;5036202;28;20457;-73
2022/04/15 10:40:26;;;;;;;4.03;3.30;;;22.30;99.90;;;;;;5038845;28;20483;-74
2022/04/15 10:42:54;;;;;;;4.90;3.70;;;22.00;99.90;;;;;;5049519;28;20476;-74
2022/04/15 10:45:29;;;;;;;7.07;3.60;;;21.90;99.90;;;;;;5033658;28;20449;-74
2022/04/15 10:47:59;;;;;;;3.90;3.50;;;22.10;99.90;;;;;;5048019;28;20498;-73
2022/04/15 10:50:28;;;;;;;5.70;2.97;;;21.80;99.90;;;;;;5033634;28;20568;-73
2022/04/15 10:53:29;;;;;;;4.80;3.73;;;21.90;99.90;;;;;;5031802;28;20450;-74
2022/04/15 10:56:07;;;;;;;6.17;3.50;;;22.00;99.90;;;;;;5036902;28;20494;-73
2022/04/15 11:01:13;;;;;;;3.37;2.90;;;21.90;99.90;;;;;;5051265;28;20944;-73
2022/04/15 11:01:35;;;;;;;5.43;3.27;;;22.00;99.90;;;;;;5045418;28;20450;-73
2022/04/15 11:04:08;;;;;;;3.30;3.00;;;22.30;99.90;;;;;;5039566;28;20836;-73
2022/04/15 11:06:35;;;;;;;3.43;3.13;;;22.50;99.90;;;;;;5044828;28;20779;-74
2022/04/15 11:09:15;;;;;;;7.47;3.63;;;22.50;99.90;;;;;;5034799;28;20481;-73
2022/04/15 11:11:44;;;;;;;5.17;3.10;;;22.10;99.90;;;;;;5044210;28;20547;-73
2022/04/15 11:14:16;;;;;;;6.23;3.47;;;22.20;99.90;;;;;;5038462;28;20465;-73
2022/04/15 11:16:48;;;;;;;3.73;3.37;;;22.60;99.90;;;;;;5033517;28;20460;-73
2022/04/15 11:19:19;;;;;;;5.47;3.50;;;23.10;99.90;;;;;;5045580;28;20481;-74
2022/04/15 11:21:51;;;;;;;3.58;2.90;;;23.40;99.90;;;;;;5042165;28;20452;-73
2022/04/15 11:24:22;;;;;;;4.47;3.50;;;23.40;99.90;;;;;;5048365;28;20206;-73
2022/04/15 11:26:49;;;;;;;4.57;3.23;;;23.60;99.90;;;;;;5032473;28;20492;-72
2022/04/15 11:29:17;;;;;;;4.53;3.60;;;23.60;99.90;;;;;;5033994;28;20533;-73
2022/04/15 11:31:46;;;;;;;4.60;3.63;;;23.70;99.90;;;;;;5044046;28;20563;-73
2022/04/15 11:34:15;;;;;;;3.53;3.20;;;23.40;99.90;;;;;;5050883;28;20448;-73
2022/04/15 11:36:43;;;;;;;3.47;3.17;;;23.30;99.90;;;;;;5033762;28;20568;-73
2022/04/15 11:39:12;;;;;;;14.60;3.17;;;23.40;99.90;;;;;;5033171;28;21173;-73
2022/04/15 11:41:44;;;;;;;4.60;2.80;;;23.70;99.90;;;;;;5031585;28;20895;-73
2022/04/15 11:44:11;;;;;;;3.77;2.57;;;23.70;99.90;;;;;;5038890;28;20453;-73
2022/04/15 11:46:44;;;;;;;3.47;2.37;;;23.60;99.90;;;;;;5048765;28;20506;-73
2022/04/15 11:49:16;;;;;;;6.30;2.80;;;23.60;99.60;;;;;;5050069;28;20471;-73
2022/04/15 11:51:47;;;;;;;3.93;2.73;;;23.70;98.20;;;;;;5037454;28;20499;-72
2022/04/15 11:54:15;;;;;;;4.00;3.17;;;23.70;99.00;;;;;;5042732;28;20972;-73
2022/04/15 11:56:43;;;;;;;4.17;2.67;;;23.70;99.90;;;;;;5034725;28;20821;-74
2022/04/15 11:59:11;;;;;;;5.03;2.47;;;23.70;99.10;;;;;;5031125;28;20523;-74
2022/04/15 12:01:38;;;;;;;3.43;3.10;;;23.90;98.50;;;;;;5039881;28;20448;-74
2022/04/15 12:04:07;;;;;;;3.03;2.60;;;24.20;99.50;;;;;;5030312;28;20496;-74
2022/04/15 12:06:40;;;;;;;5.67;3.23;;;24.10;98.40;;;;;;5047683;28;20464;-74
2022/04/15 12:09:07;;;;;;;3.70;3.40;;;24.20;99.20;;;;;;5049954;28;20476;-75
2022/04/15 12:11:34;;;;;;;4.53;3.10;;;23.60;99.90;;;;;;5045116;28;20448;-74
2022/04/15 12:14:03;;;;;;;5.07;3.07;;;23.60;99.40;;;;;;5049578;28;20449;-73
2022/04/15 12:16:32;;;;;;;4.27;3.33;;;23.60;98.90;;;;;;5036486;28;20453;-75
2022/04/15 12:19:00;;;;;;;3.27;2.97;;;23.60;99.00;;;;;;5038397;28;20954;-74
2022/04/15 12:21:29;;;;;;;3.80;2.70;;;23.80;99.00;;;;;;5033124;28;20458;-74
2022/04/15 12:24:04;;;;;;;3.60;3.23;;;24.20;99.10;;;;;;5030409;28;20518;-74
2022/04/15 12:26:45;;;;;;;3.67;2.90;;;24.60;97.80;;;;;;5038792;28;20451;-74
2022/04/15 12:32:16;;;;;;;5.00;2.80;;;24.90;97.60;;;;;;5042023;28;20447;-76
2022/04/15 12:34:43;;;;;;;4.37;2.73;;;25.10;96.80;;;;;;5049319;28;20476;-75
2022/04/15 12:37:33;;;;;;;4.53;3.30;;;24.90;97.20;;;;;;5050447;28;21093;-76
2022/04/15 12:40:00;;;;;;;3.50;2.90;;;25.10;98.10;;;;;;5049563;28;20473;-73
2022/04/15 12:42:28;;;;;;;3.93;2.60;;;25.10;97.50;;;;;;5048127;28;20480;-73
2022/04/15 12:44:54;;;;;;;2.80;2.50;;;25.00;96.20;;;;;;5040091;28;20537;-74
2022/04/15 12:47:25;;;;;;;4.33;3.20;;;24.80;96.30;;;;;;5033807;28;20453;-72